sensor_id;sensor_type;location;lat;lon;timestamp;P1;durP1;ratioP1;P2;durP2;ratioP2
8102;SDS011;4094;49.948;11.574;2023-04-03T00:01:39;8.30;;;7.90;;
8102;SDS011;4094;49.948;11.574;2023-04-03T00:04:09;8.77;;;8.27;;
8102;SDS011;4094;49.948;11.574;2023-04-03T00:06:38;8.53;;;8.13;;
8102;SDS011;4094;49.948;11.574;2023-04-03T00:09:07;8.53;;;8.10;;
8102;SDS011;4094;49.948;11.574;2023-04-03T00:11:38;8.90;;;8.40;;
8102;SDS011;4094;49.948;11.574;2023-04-03T00:14:07;8.90;;;8.40;;
8102;SDS011;4094;49.948;11.574;2023-04-03T00:16:36;8.40;;;8.00;;
8102;SDS011;4094;49.948;11.574;2023-04-03T00:19:05;8.27;;;7.87;;
8102;SDS011;4094;49.948;11.574;2023-04-03T00:21:34;8.70;;;8.30;;
8102;SDS011;4094;49.948;11.574;2023-04-03T00:24:04;8.97;;;8.47;;
8102;SDS011;4094;49.948;11.574;2023-04-03T00:26:33;8.53;;;8.00;;
8102;SDS011;4094;49.948;11.574;2023-04-03T00:29:04;8.67;;;8.17;;
8102;SDS011;4094;49.948;11.574;2023-04-03T00:31:33;9.33;;;8.57;;
8102;SDS011;4094;49.948;11.574;2023-04-03T00:34:02;9.37;;;8.77;;
8102;SDS011;4094;49.948;11.574;2023-04-03T00:36:32;9.73;;;8.93;;
8102;SDS011;4094;49.948;11.574;2023-04-03T00:39:01;9.40;;;8.70;;
8102;SDS011;4094;49.948;11.574;2023-04-03T00:41:30;8.97;;;8.47;;
8102;SDS011;4094;49.948;11.574;2023-04-03T00:43:59;9.50;;;8.90;;
8102;SDS011;4094;49.948;11.574;2023-04-03T00:46:30;9.07;;;8.47;;
8102;SDS011;4094;49.948;11.574;2023-04-03T00:48:59;9.27;;;8.67;;
8102;SDS011;4094;49.948;11.574;2023-04-03T00:51:28;8.90;;;8.30;;
8102;SDS011;4094;49.948;11.574;2023-04-03T00:53:59;9.10;;;8.50;;
8102;SDS011;4094;49.948;11.574;2023-04-03T00:56:31;9.43;;;8.87;;
8102;SDS011;4094;49.948;11.574;2023-04-03T00:59:02;9.13;;;8.43;;
8102;SDS011;4094;49.948;11.574;2023-04-03T01:01:35;9.40;;;8.80;;
8102;SDS011;4094;49.948;11.574;2023-04-03T01:04:24;9.37;;;8.77;;
8102;SDS011;4094;49.948;11.574;2023-04-03T01:06:56;8.90;;;8.20;;
8102;SDS011;4094;49.948;11.574;2023-04-03T01:09:29;9.30;;;8.70;;
8102;SDS011;4094;49.948;11.574;2023-04-03T01:12:13;9.33;;;8.73;;
8102;SDS011;4094;49.948;11.574;2023-04-03T01:14:43;9.30;;;8.70;;
8102;SDS011;4094;49.948;11.574;2023-04-03T01:17:31;9.20;;;8.60;;
8102;SDS011;4094;49.948;11.574;2023-04-03T01:20:11;9.40;;;8.90;;
8102;SDS011;4094;49.948;11.574;2023-04-03T01:23:06;9.27;;;8.47;;
8102;SDS011;4094;49.948;11.574;2023-04-03T01:25:45;9.07;;;8.40;;
8102;SDS011;4094;49.948;11.574;2023-04-03T01:28:18;9.47;;;8.83;;
8102;SDS011;4094;49.948;11.574;2023-04-03T01:30:50;9.37;;;8.77;;
8102;SDS011;4094;49.948;11.574;2023-04-03T01:33:27;9.10;;;8.43;;
8102;SDS011;4094;49.948;11.574;2023-04-03T01:35:56;9.70;;;8.97;;
8102;SDS011;4094;49.948;11.574;2023-04-03T01:38:25;9.93;;;9.23;;
8102;SDS011;4094;49.948;11.574;2023-04-03T01:40:54;10.40;;;9.60;;
8102;SDS011;4094;49.948;11.574;2023-04-03T01:43:24;10.37;;;9.60;;
8102;SDS011;4094;49.948;11.574;2023-04-03T01:45:53;10.57;;;9.87;;
8102;SDS011;4094;49.948;11.574;2023-04-03T01:48:23;10.10;;;9.20;;
8102;SDS011;4094;49.948;11.574;2023-04-03T01:50:55;10.13;;;9.43;;
8102;SDS011;4094;49.948;11.574;2023-04-03T01:53:24;9.77;;;8.97;;
8102;SDS011;4094;49.948;11.574;2023-04-03T01:55:53;10.60;;;9.83;;
8102;SDS011;4094;49.948;11.574;2023-04-03T01:58:23;9.60;;;8.90;;
8102;SDS011;4094;49.948;11.574;2023-04-03T02:00:53;9.80;;;9.10;;
8102;SDS011;4094;49.948;11.574;2023-04-03T02:03:23;9.60;;;8.90;;
8102;SDS011;4094;49.948;11.574;2023-04-03T02:05:52;10.60;;;9.87;;
8102;SDS011;4094;49.948;11.574;2023-04-03T02:08:23;10.13;;;9.17;;
8102;SDS011;4094;49.948;11.574;2023-04-03T02:10:52;10.60;;;9.70;;
8102;SDS011;4094;49.948;11.574;2023-04-03T02:13:21;10.43;;;9.63;;
8102;SDS011;4094;49.948;11.574;2023-04-03T02:15:50;10.13;;;9.33;;
8102;SDS011;4094;49.948;11.574;2023-04-03T02:18:19;10.30;;;9.50;;
8102;SDS011;4094;49.948;11.574;2023-04-03T02:20:49;9.43;;;8.93;;
8102;SDS011;4094;49.948;11.574;2023-04-03T02:23:18;10.13;;;9.40;;
8102;SDS011;4094;49.948;11.574;2023-04-03T02:25:48;9.60;;;9.00;;
8102;SDS011;4094;49.948;11.574;2023-04-03T02:28:17;10.23;;;9.43;;
8102;SDS011;4094;49.948;11.574;2023-04-03T02:30:46;9.73;;;9.13;;
8102;SDS011;4094;49.948;11.574;2023-04-03T02:33:15;9.70;;;9.00;;
8102;SDS011;4094;49.948;11.574;2023-04-03T02:35:44;10.07;;;9.27;;
8102;SDS011;4094;49.948;11.574;2023-04-03T02:38:21;9.90;;;9.20;;
8102;SDS011;4094;49.948;11.574;2023-04-03T02:40:52;9.93;;;8.93;;
8102;SDS011;4094;49.948;11.574;2023-04-03T02:43:21;9.60;;;8.70;;
8102;SDS011;4094;49.948;11.574;2023-04-03T02:45:50;10.50;;;9.70;;
8102;SDS011;4094;49.948;11.574;2023-04-03T02:48:19;9.47;;;8.80;;
8102;SDS011;4094;49.948;11.574;2023-04-03T02:50:48;9.77;;;9.07;;
8102;SDS011;4094;49.948;11.574;2023-04-03T02:53:18;9.47;;;8.87;;
8102;SDS011;4094;49.948;11.574;2023-04-03T02:55:49;9.60;;;9.10;;
8102;SDS011;4094;49.948;11.574;2023-04-03T02:58:20;9.40;;;8.70;;
8102;SDS011;4094;49.948;11.574;2023-04-03T03:00:50;9.67;;;8.87;;
8102;SDS011;4094;49.948;11.574;2023-04-03T03:03:19;9.27;;;8.60;;
8102;SDS011;4094;49.948;11.574;2023-04-03T03:05:48;9.63;;;8.90;;
8102;SDS011;4094;49.948;11.574;2023-04-03T03:08:17;9.50;;;8.90;;
8102;SDS011;4094;49.948;11.574;2023-04-03T03:10:47;9.60;;;8.90;;
8102;SDS011;4094;49.948;11.574;2023-04-03T03:13:19;10.20;;;9.27;;
8102;SDS011;4094;49.948;11.574;2023-04-03T03:15:48;9.70;;;9.00;;
8102;SDS011;4094;49.948;11.574;2023-04-03T03:18:17;9.33;;;8.70;;
8102;SDS011;4094;49.948;11.574;2023-04-03T03:20:50;8.83;;;8.13;;
8102;SDS011;4094;49.948;11.574;2023-04-03T03:23:21;9.83;;;9.13;;
8102;SDS011;4094;49.948;11.574;2023-04-03T03:25:54;9.53;;;8.70;;
8102;SDS011;4094;49.948;11.574;2023-04-03T03:28:24;8.93;;;8.43;;
8102;SDS011;4094;49.948;11.574;2023-04-03T03:30:53;9.37;;;8.67;;
8102;SDS011;4094;49.948;11.574;2023-04-03T03:33:23;9.63;;;8.93;;
8102;SDS011;4094;49.948;11.574;2023-04-03T03:35:52;9.13;;;8.53;;
8102;SDS011;4094;49.948;11.574;2023-04-03T03:38:22;9.50;;;8.90;;
8102;SDS011;4094;49.948;11.574;2023-04-03T03:40:52;8.87;;;8.27;;
8102;SDS011;4094;49.948;11.574;2023-04-03T03:43:22;9.77;;;9.03;;
8102;SDS011;4094;49.948;11.574;2023-04-03T03:45:54;10.20;;;9.40;;
8102;SDS011;4094;49.948;11.574;2023-04-03T03:48:25;9.77;;;9.07;;
8102;SDS011;4094;49.948;11.574;2023-04-03T03:50:53;10.07;;;9.33;;
8102;SDS011;4094;49.948;11.574;2023-04-03T03:53:26;9.47;;;8.70;;
8102;SDS011;4094;49.948;11.574;2023-04-03T03:55:59;10.27;;;9.40;;
8102;SDS011;4094;49.948;11.574;2023-04-03T03:58:31;9.60;;;8.93;;
8102;SDS011;4094;49.948;11.574;2023-04-03T04:01:01;9.33;;;8.63;;
8102;SDS011;4094;49.948;11.574;2023-04-03T04:03:36;9.20;;;8.60;;
8102;SDS011;4094;49.948;11.574;2023-04-03T04:06:07;9.87;;;9.17;;
8102;SDS011;4094;49.948;11.574;2023-04-03T04:08:37;10.40;;;9.60;;
8102;SDS011;4094;49.948;11.574;2023-04-03T04:11:08;9.70;;;9.00;;
8102;SDS011;4094;49.948;11.574;2023-04-03T04:13:39;9.90;;;9.10;;
8102;SDS011;4094;49.948;11.574;2023-04-03T04:16:11;9.77;;;9.07;;
8102;SDS011;4094;49.948;11.574;2023-04-03T04:18:40;9.63;;;8.93;;
8102;SDS011;4094;49.948;11.574;2023-04-03T04:21:09;9.97;;;9.20;;
8102;SDS011;4094;49.948;11.574;2023-04-03T04:23:39;10.27;;;9.47;;
8102;SDS011;4094;49.948;11.574;2023-04-03T04:26:08;9.37;;;8.73;;
8102;SDS011;4094;49.948;11.574;2023-04-03T04:28:40;10.07;;;9.40;;
8102;SDS011;4094;49.948;11.574;2023-04-03T04:31:09;9.60;;;9.00;;
8102;SDS011;4094;49.948;11.574;2023-04-03T04:33:39;9.93;;;9.03;;
8102;SDS011;4094;49.948;11.574;2023-04-03T04:36:11;10.27;;;9.33;;
8102;SDS011;4094;49.948;11.574;2023-04-03T04:38:44;10.60;;;9.57;;
8102;SDS011;4094;49.948;11.574;2023-04-03T04:41:13;10.30;;;9.50;;
8102;SDS011;4094;49.948;11.574;2023-04-03T04:43:45;10.43;;;9.60;;
8102;SDS011;4094;49.948;11.574;2023-04-03T04:46:15;10.60;;;9.73;;
8102;SDS011;4094;49.948;11.574;2023-04-03T04:48:49;10.17;;;9.20;;
8102;SDS011;4094;49.948;11.574;2023-04-03T04:51:20;10.40;;;9.70;;
8102;SDS011;4094;49.948;11.574;2023-04-03T04:53:49;10.57;;;9.83;;
8102;SDS011;4094;49.948;11.574;2023-04-03T04:56:21;10.17;;;9.47;;
8102;SDS011;4094;49.948;11.574;2023-04-03T04:58:52;10.23;;;9.43;;
8102;SDS011;4094;49.948;11.574;2023-04-03T05:01:22;10.13;;;9.43;;
8102;SDS011;4094;49.948;11.574;2023-04-03T05:03:59;10.80;;;10.00;;
8102;SDS011;4094;49.948;11.574;2023-04-03T05:06:28;10.30;;;9.60;;
8102;SDS011;4094;49.948;11.574;2023-04-03T05:09:00;11.10;;;10.07;;
8102;SDS011;4094;49.948;11.574;2023-04-03T05:11:31;9.90;;;9.20;;
8102;SDS011;4094;49.948;11.574;2023-04-03T05:14:01;10.63;;;9.87;;
8102;SDS011;4094;49.948;11.574;2023-04-03T05:16:33;10.53;;;9.73;;
8102;SDS011;4094;49.948;11.574;2023-04-03T05:19:03;10.50;;;9.80;;
8102;SDS011;4094;49.948;11.574;2023-04-03T05:21:32;10.27;;;9.57;;
8102;SDS011;4094;49.948;11.574;2023-04-03T05:24:07;11.37;;;10.33;;
8102;SDS011;4094;49.948;11.574;2023-04-03T05:26:39;10.50;;;9.73;;
8102;SDS011;4094;49.948;11.574;2023-04-03T05:29:10;10.50;;;9.70;;
8102;SDS011;4094;49.948;11.574;2023-04-03T05:31:41;10.37;;;9.57;;
8102;SDS011;4094;49.948;11.574;2023-04-03T05:34:11;10.50;;;9.70;;
8102;SDS011;4094;49.948;11.574;2023-04-03T05:36:41;10.70;;;9.97;;
8102;SDS011;4094;49.948;11.574;2023-04-03T05:39:11;10.97;;;10.07;;
8102;SDS011;4094;49.948;11.574;2023-04-03T05:41:43;10.27;;;9.50;;
8102;SDS011;4094;49.948;11.574;2023-04-03T05:44:14;10.60;;;9.80;;
8102;SDS011;4094;49.948;11.574;2023-04-03T05:46:45;10.37;;;9.77;;
8102;SDS011;4094;49.948;11.574;2023-04-03T05:49:14;10.10;;;9.40;;
8102;SDS011;4094;49.948;11.574;2023-04-03T05:51:43;10.07;;;9.37;;
8102;SDS011;4094;49.948;11.574;2023-04-03T05:54:18;10.90;;;10.10;;
8102;SDS011;4094;49.948;11.574;2023-04-03T05:56:53;10.20;;;9.60;;
8102;SDS011;4094;49.948;11.574;2023-04-03T05:59:25;11.10;;;10.10;;
8102;SDS011;4094;49.948;11.574;2023-04-03T06:01:57;10.90;;;10.10;;
8102;SDS011;4094;49.948;11.574;2023-04-03T06:04:26;9.80;;;9.10;;
8102;SDS011;4094;49.948;11.574;2023-04-03T06:06:56;10.10;;;9.30;;
8102;SDS011;4094;49.948;11.574;2023-04-03T06:09:26;10.07;;;9.37;;
8102;SDS011;4094;49.948;11.574;2023-04-03T06:11:57;9.60;;;9.00;;
8102;SDS011;4094;49.948;11.574;2023-04-03T06:14:29;10.00;;;9.20;;
8102;SDS011;4094;49.948;11.574;2023-04-03T06:16:58;9.80;;;9.00;;
8102;SDS011;4094;49.948;11.574;2023-04-03T06:19:28;9.77;;;9.03;;
8102;SDS011;4094;49.948;11.574;2023-04-03T06:21:58;9.87;;;9.07;;
8102;SDS011;4094;49.948;11.574;2023-04-03T06:24:27;9.60;;;8.90;;
8102;SDS011;4094;49.948;11.574;2023-04-03T06:26:57;10.10;;;9.30;;
8102;SDS011;4094;49.948;11.574;2023-04-03T06:29:27;10.00;;;9.30;;
8102;SDS011;4094;49.948;11.574;2023-04-03T06:31:57;10.33;;;9.53;;
8102;SDS011;4094;49.948;11.574;2023-04-03T06:34:26;10.00;;;9.30;;
8102;SDS011;4094;49.948;11.574;2023-04-03T06:36:55;9.67;;;9.03;;
8102;SDS011;4094;49.948;11.574;2023-04-03T06:39:24;10.17;;;9.37;;
8102;SDS011;4094;49.948;11.574;2023-04-03T06:41:54;9.93;;;9.13;;
8102;SDS011;4094;49.948;11.574;2023-04-03T06:44:34;9.70;;;9.00;;
8102;SDS011;4094;49.948;11.574;2023-04-03T06:47:04;9.97;;;9.17;;
8102;SDS011;4094;49.948;11.574;2023-04-03T06:49:34;10.33;;;9.53;;
8102;SDS011;4094;49.948;11.574;2023-04-03T06:52:04;9.77;;;9.07;;
8102;SDS011;4094;49.948;11.574;2023-04-03T06:54:33;9.83;;;9.23;;
8102;SDS011;4094;49.948;11.574;2023-04-03T06:57:03;10.87;;;9.87;;
8102;SDS011;4094;49.948;11.574;2023-04-03T06:59:32;10.20;;;9.30;;
8102;SDS011;4094;49.948;11.574;2023-04-03T07:02:01;9.67;;;9.03;;
8102;SDS011;4094;49.948;11.574;2023-04-03T07:04:32;10.20;;;9.30;;
8102;SDS011;4094;49.948;11.574;2023-04-03T07:07:02;10.10;;;9.30;;
8102;SDS011;4094;49.948;11.574;2023-04-03T07:09:31;8.73;;;8.20;;
8102;SDS011;4094;49.948;11.574;2023-04-03T07:12:00;9.57;;;8.87;;
8102;SDS011;4094;49.948;11.574;2023-04-03T07:14:29;9.77;;;8.90;;
8102;SDS011;4094;49.948;11.574;2023-04-03T07:16:58;9.93;;;9.10;;
8102;SDS011;4094;49.948;11.574;2023-04-03T07:19:27;9.50;;;8.80;;
8102;SDS011;4094;49.948;11.574;2023-04-03T07:21:57;9.37;;;8.77;;
8102;SDS011;4094;49.948;11.574;2023-04-03T07:24:26;9.53;;;8.63;;
8102;SDS011;4094;49.948;11.574;2023-04-03T07:26:55;9.33;;;8.57;;
8102;SDS011;4094;49.948;11.574;2023-04-03T07:29:24;9.33;;;8.60;;
8102;SDS011;4094;49.948;11.574;2023-04-03T07:31:53;9.17;;;8.50;;
8102;SDS011;4094;49.948;11.574;2023-04-03T07:34:23;9.60;;;8.90;;
8102;SDS011;4094;49.948;11.574;2023-04-03T07:36:53;9.90;;;9.00;;
8102;SDS011;4094;49.948;11.574;2023-04-03T07:39:23;8.90;;;8.17;;
8102;SDS011;4094;49.948;11.574;2023-04-03T07:41:52;8.30;;;7.70;;
8102;SDS011;4094;49.948;11.574;2023-04-03T07:44:23;8.60;;;8.00;;
8102;SDS011;4094;49.948;11.574;2023-04-03T07:46:52;8.80;;;8.07;;
8102;SDS011;4094;49.948;11.574;2023-04-03T07:49:22;8.37;;;7.67;;
8102;SDS011;4094;49.948;11.574;2023-04-03T07:51:51;8.20;;;7.60;;
8102;SDS011;4094;49.948;11.574;2023-04-03T07:54:21;8.00;;;7.40;;
8102;SDS011;4094;49.948;11.574;2023-04-03T07:56:52;8.43;;;7.73;;
8102;SDS011;4094;49.948;11.574;2023-04-03T07:59:21;7.80;;;7.17;;
8102;SDS011;4094;49.948;11.574;2023-04-03T08:01:50;7.70;;;7.10;;
8102;SDS011;4094;49.948;11.574;2023-04-03T08:04:20;7.50;;;6.90;;
8102;SDS011;4094;49.948;11.574;2023-04-03T08:06:49;8.10;;;7.40;;
8102;SDS011;4094;49.948;11.574;2023-04-03T08:09:18;7.90;;;7.20;;
8102;SDS011;4094;49.948;11.574;2023-04-03T08:11:48;6.97;;;6.37;;
8102;SDS011;4094;49.948;11.574;2023-04-03T08:14:20;7.77;;;7.17;;
8102;SDS011;4094;49.948;11.574;2023-04-03T08:16:49;8.17;;;7.47;;
8102;SDS011;4094;49.948;11.574;2023-04-03T08:19:18;7.60;;;7.00;;
8102;SDS011;4094;49.948;11.574;2023-04-03T08:21:53;7.27;;;6.67;;
8102;SDS011;4094;49.948;11.574;2023-04-03T08:24:23;7.27;;;6.67;;
8102;SDS011;4094;49.948;11.574;2023-04-03T08:26:54;7.83;;;7.23;;
8102;SDS011;4094;49.948;11.574;2023-04-03T08:29:23;7.47;;;6.87;;
8102;SDS011;4094;49.948;11.574;2023-04-03T08:31:53;7.70;;;7.03;;
8102;SDS011;4094;49.948;11.574;2023-04-03T08:34:22;7.80;;;7.20;;
8102;SDS011;4094;49.948;11.574;2023-04-03T08:36:51;6.73;;;6.23;;
8102;SDS011;4094;49.948;11.574;2023-04-03T08:39:21;7.53;;;6.93;;
8102;SDS011;4094;49.948;11.574;2023-04-03T08:41:50;7.90;;;7.30;;
8102;SDS011;4094;49.948;11.574;2023-04-03T08:44:23;8.07;;;7.47;;
8102;SDS011;4094;49.948;11.574;2023-04-03T08:47:02;7.53;;;7.03;;
8102;SDS011;4094;49.948;11.574;2023-04-03T08:49:39;7.57;;;7.07;;
8102;SDS011;4094;49.948;11.574;2023-04-03T08:52:16;8.00;;;7.33;;
8102;SDS011;4094;49.948;11.574;2023-04-03T08:54:49;7.20;;;6.77;;
8102;SDS011;4094;49.948;11.574;2023-04-03T08:57:25;7.30;;;6.80;;
8102;SDS011;4094;49.948;11.574;2023-04-03T09:00:00;7.90;;;7.30;;
8102;SDS011;4094;49.948;11.574;2023-04-03T09:02:39;8.47;;;7.77;;
8102;SDS011;4094;49.948;11.574;2023-04-03T09:05:14;7.83;;;7.33;;
8102;SDS011;4094;49.948;11.574;2023-04-03T09:07:45;7.33;;;6.83;;
8102;SDS011;4094;49.948;11.574;2023-04-03T09:10:24;7.80;;;7.30;;
8102;SDS011;4094;49.948;11.574;2023-04-03T09:12:59;7.70;;;7.20;;
8102;SDS011;4094;49.948;11.574;2023-04-03T09:15:36;7.37;;;6.97;;
8102;SDS011;4094;49.948;11.574;2023-04-03T09:18:09;7.90;;;7.40;;
8102;SDS011;4094;49.948;11.574;2023-04-03T09:20:45;7.53;;;7.03;;
8102;SDS011;4094;49.948;11.574;2023-04-03T09:23:20;7.63;;;7.13;;
8102;SDS011;4094;49.948;11.574;2023-04-03T09:25:54;7.43;;;7.03;;
8102;SDS011;4094;49.948;11.574;2023-04-03T09:28:29;7.87;;;7.33;;
8102;SDS011;4094;49.948;11.574;2023-04-03T09:31:16;7.70;;;7.20;;
8102;SDS011;4094;49.948;11.574;2023-04-03T09:33:49;7.87;;;7.27;;
8102;SDS011;4094;49.948;11.574;2023-04-03T09:36:37;7.67;;;7.17;;
8102;SDS011;4094;49.948;11.574;2023-04-03T09:39:10;7.73;;;7.23;;
8102;SDS011;4094;49.948;11.574;2023-04-03T09:41:42;7.87;;;7.27;;
8102;SDS011;4094;49.948;11.574;2023-04-03T09:44:23;7.97;;;7.47;;
8102;SDS011;4094;49.948;11.574;2023-04-03T09:46:55;7.87;;;7.17;;
8102;SDS011;4094;49.948;11.574;2023-04-03T09:49:24;7.67;;;7.17;;
8102;SDS011;4094;49.948;11.574;2023-04-03T09:51:53;7.63;;;7.17;;
8102;SDS011;4094;49.948;11.574;2023-04-03T09:54:32;7.60;;;7.10;;
8102;SDS011;4094;49.948;11.574;2023-04-03T09:57:09;6.97;;;6.57;;
8102;SDS011;4094;49.948;11.574;2023-04-03T09:59:42;7.17;;;6.73;;
8102;SDS011;4094;49.948;11.574;2023-04-03T10:02:27;6.77;;;6.27;;
8102;SDS011;4094;49.948;11.574;2023-04-03T10:05:00;6.87;;;6.37;;
8102;SDS011;4094;49.948;11.574;2023-04-03T10:07:33;7.03;;;6.63;;
8102;SDS011;4094;49.948;11.574;2023-04-03T10:10:15;7.20;;;6.57;;
8102;SDS011;4094;49.948;11.574;2023-04-03T10:12:47;7.50;;;7.00;;
8102;SDS011;4094;49.948;11.574;2023-04-03T10:15:17;7.53;;;6.93;;
8102;SDS011;4094;49.948;11.574;2023-04-03T10:17:51;6.90;;;6.50;;
8102;SDS011;4094;49.948;11.574;2023-04-03T10:20:32;7.33;;;6.73;;
8102;SDS011;4094;49.948;11.574;2023-04-03T10:23:14;7.23;;;6.73;;
8102;SDS011;4094;49.948;11.574;2023-04-03T10:25:50;7.30;;;6.80;;
8102;SDS011;4094;49.948;11.574;2023-04-03T10:28:30;7.40;;;6.90;;
8102;SDS011;4094;49.948;11.574;2023-04-03T10:31:04;6.40;;;5.90;;
8102;SDS011;4094;49.948;11.574;2023-04-03T10:33:42;6.73;;;6.33;;
8102;SDS011;4094;49.948;11.574;2023-04-03T10:36:23;6.70;;;6.20;;
8102;SDS011;4094;49.948;11.574;2023-04-03T10:39:01;7.47;;;6.87;;
8102;SDS011;4094;49.948;11.574;2023-04-03T10:41:40;7.00;;;6.40;;
8102;SDS011;4094;49.948;11.574;2023-04-03T10:44:27;6.90;;;6.50;;
8102;SDS011;4094;49.948;11.574;2023-04-03T10:47:06;7.97;;;7.27;;
8102;SDS011;4094;49.948;11.574;2023-04-03T10:49:43;7.50;;;6.90;;
8102;SDS011;4094;49.948;11.574;2023-04-03T10:52:28;8.03;;;7.37;;
8102;SDS011;4094;49.948;11.574;2023-04-03T10:55:14;7.70;;;7.10;;
8102;SDS011;4094;49.948;11.574;2023-04-03T10:57:53;7.37;;;6.87;;
8102;SDS011;4094;49.948;11.574;2023-04-03T11:00:25;7.57;;;6.90;;
8102;SDS011;4094;49.948;11.574;2023-04-03T11:03:06;6.83;;;6.43;;
8102;SDS011;4094;49.948;11.574;2023-04-03T11:05:42;6.83;;;6.40;;
8102;SDS011;4094;49.948;11.574;2023-04-03T11:08:17;6.77;;;6.37;;
8102;SDS011;4094;49.948;11.574;2023-04-03T11:10:55;6.47;;;6.07;;
8102;SDS011;4094;49.948;11.574;2023-04-03T11:13:30;7.50;;;6.90;;
8102;SDS011;4094;49.948;11.574;2023-04-03T11:16:03;6.93;;;6.47;;
8102;SDS011;4094;49.948;11.574;2023-04-03T11:18:35;7.40;;;6.80;;
8102;SDS011;4094;49.948;11.574;2023-04-03T11:21:11;6.87;;;6.47;;
8102;SDS011;4094;49.948;11.574;2023-04-03T11:23:45;7.60;;;7.00;;
8102;SDS011;4094;49.948;11.574;2023-04-03T11:26:17;6.50;;;6.10;;
8102;SDS011;4094;49.948;11.574;2023-04-03T11:28:52;6.90;;;6.40;;
8102;SDS011;4094;49.948;11.574;2023-04-03T11:31:29;6.70;;;6.20;;
8102;SDS011;4094;49.948;11.574;2023-04-03T11:34:13;6.70;;;6.20;;
8102;SDS011;4094;49.948;11.574;2023-04-03T11:36:55;6.73;;;6.13;;
8102;SDS011;4094;49.948;11.574;2023-04-03T11:39:27;6.80;;;6.13;;
8102;SDS011;4094;49.948;11.574;2023-04-03T11:42:12;6.40;;;6.00;;
8102;SDS011;4094;49.948;11.574;2023-04-03T11:44:44;6.20;;;5.70;;
8102;SDS011;4094;49.948;11.574;2023-04-03T11:47:43;6.80;;;6.20;;
8102;SDS011;4094;49.948;11.574;2023-04-03T11:59:22;6.20;;;5.70;;
8102;SDS011;4094;49.948;11.574;2023-04-03T12:01:52;6.40;;;5.80;;
8102;SDS011;4094;49.948;11.574;2023-04-03T12:04:23;5.90;;;5.50;;
8102;SDS011;4094;49.948;11.574;2023-04-03T12:12:59;5.73;;;5.33;;
8102;SDS011;4094;49.948;11.574;2023-04-03T12:24:49;5.00;;;4.50;;
8102;SDS011;4094;49.948;11.574;2023-04-03T12:27:33;3.90;;;3.70;;
8102;SDS011;4094;49.948;11.574;2023-04-03T12:30:12;4.97;;;4.40;;
8102;SDS011;4094;49.948;11.574;2023-04-03T12:36:04;3.67;;;3.37;;
8102;SDS011;4094;49.948;11.574;2023-04-03T12:38:47;3.00;;;2.80;;
8102;SDS011;4094;49.948;11.574;2023-04-03T12:41:36;3.37;;;3.07;;
8102;SDS011;4094;49.948;11.574;2023-04-03T12:44:21;3.23;;;2.37;;
8102;SDS011;4094;49.948;11.574;2023-04-03T12:47:08;4.03;;;2.40;;
8102;SDS011;4094;49.948;11.574;2023-04-03T12:49:54;2.67;;;2.13;;
8102;SDS011;4094;49.948;11.574;2023-04-03T12:52:29;2.53;;;2.00;;
8102;SDS011;4094;49.948;11.574;2023-04-03T12:55:02;2.43;;;1.90;;
8102;SDS011;4094;49.948;11.574;2023-04-03T12:57:37;4.57;;;2.17;;
8102;SDS011;4094;49.948;11.574;2023-04-03T13:00:25;1.90;;;1.80;;
8102;SDS011;4094;49.948;11.574;2023-04-03T13:03:01;2.90;;;2.20;;
8102;SDS011;4094;49.948;11.574;2023-04-03T13:05:32;3.07;;;2.60;;
8102;SDS011;4094;49.948;11.574;2023-04-03T13:08:05;4.20;;;2.60;;
8102;SDS011;4094;49.948;11.574;2023-04-03T13:10:51;3.10;;;2.80;;
8102;SDS011;4094;49.948;11.574;2023-04-03T13:13:23;3.30;;;3.10;;
8102;SDS011;4094;49.948;11.574;2023-04-03T13:15:55;3.77;;;3.47;;
8102;SDS011;4094;49.948;11.574;2023-04-03T13:18:26;6.97;;;3.50;;
8102;SDS011;4094;49.948;11.574;2023-04-03T13:21:00;4.13;;;3.77;;
8102;SDS011;4094;49.948;11.574;2023-04-03T13:23:32;4.00;;;3.70;;
8102;SDS011;4094;49.948;11.574;2023-04-03T13:26:04;3.87;;;3.60;;
8102;SDS011;4094;49.948;11.574;2023-04-03T13:28:35;4.33;;;3.97;;
8102;SDS011;4094;49.948;11.574;2023-04-03T13:31:17;5.23;;;4.30;;
8102;SDS011;4094;49.948;11.574;2023-04-03T13:33:54;4.70;;;4.40;;
8102;SDS011;4094;49.948;11.574;2023-04-03T13:36:27;4.83;;;4.43;;
8102;SDS011;4094;49.948;11.574;2023-04-03T13:39:00;5.00;;;4.60;;
8102;SDS011;4094;49.948;11.574;2023-04-03T13:41:33;6.00;;;4.50;;
8102;SDS011;4094;49.948;11.574;2023-04-03T13:47:15;5.00;;;4.70;;
8102;SDS011;4094;49.948;11.574;2023-04-03T13:49:58;5.30;;;4.90;;
8102;SDS011;4094;49.948;11.574;2023-04-03T13:52:31;5.70;;;5.30;;
8102;SDS011;4094;49.948;11.574;2023-04-03T13:55:11;5.27;;;4.87;;
8102;SDS011;4094;49.948;11.574;2023-04-03T13:57:54;5.23;;;4.93;;
8102;SDS011;4094;49.948;11.574;2023-04-03T14:00:30;6.07;;;5.57;;
8102;SDS011;4094;49.948;11.574;2023-04-03T14:03:13;5.93;;;5.53;;
8102;SDS011;4094;49.948;11.574;2023-04-03T14:05:42;5.83;;;5.30;;
8102;SDS011;4094;49.948;11.574;2023-04-03T14:08:13;6.10;;;5.60;;
8102;SDS011;4094;49.948;11.574;2023-04-03T14:10:42;6.23;;;5.83;;
8102;SDS011;4094;49.948;11.574;2023-04-03T14:13:12;6.50;;;6.00;;
8102;SDS011;4094;49.948;11.574;2023-04-03T14:15:43;7.07;;;6.57;;
8102;SDS011;4094;49.948;11.574;2023-04-03T14:18:17;6.37;;;5.87;;
8102;SDS011;4094;49.948;11.574;2023-04-03T14:20:49;5.80;;;5.33;;
8102;SDS011;4094;49.948;11.574;2023-04-03T14:23:19;6.27;;;5.67;;
8102;SDS011;4094;49.948;11.574;2023-04-03T14:25:48;6.03;;;5.63;;
8102;SDS011;4094;49.948;11.574;2023-04-03T14:28:19;6.03;;;5.60;;
8102;SDS011;4094;49.948;11.574;2023-04-03T14:30:50;5.87;;;5.37;;
8102;SDS011;4094;49.948;11.574;2023-04-03T14:42:57;7.50;;;6.90;;
8102;SDS011;4094;49.948;11.574;2023-04-03T14:45:27;6.87;;;6.37;;
8102;SDS011;4094;49.948;11.574;2023-04-03T15:04:38;8.13;;;7.63;;
8102;SDS011;4094;49.948;11.574;2023-04-03T15:07:07;8.10;;;7.50;;
8102;SDS011;4094;49.948;11.574;2023-04-03T15:09:37;7.57;;;7.10;;
8102;SDS011;4094;49.948;11.574;2023-04-03T15:12:07;8.43;;;7.87;;
8102;SDS011;4094;49.948;11.574;2023-04-03T15:14:37;8.23;;;7.63;;
8102;SDS011;4094;49.948;11.574;2023-04-03T15:17:10;8.67;;;7.97;;
8102;SDS011;4094;49.948;11.574;2023-04-03T15:19:45;7.80;;;7.30;;
8102;SDS011;4094;49.948;11.574;2023-04-03T15:22:14;8.37;;;7.77;;
8102;SDS011;4094;49.948;11.574;2023-04-03T15:24:44;8.13;;;7.53;;
8102;SDS011;4094;49.948;11.574;2023-04-03T15:27:13;7.70;;;7.10;;
8102;SDS011;4094;49.948;11.574;2023-04-03T15:29:43;7.73;;;7.27;;
8102;SDS011;4094;49.948;11.574;2023-04-03T15:32:13;7.90;;;7.50;;
8102;SDS011;4094;49.948;11.574;2023-04-03T15:34:42;8.10;;;7.60;;
8102;SDS011;4094;49.948;11.574;2023-04-03T15:37:13;7.90;;;7.50;;
8102;SDS011;4094;49.948;11.574;2023-04-03T15:39:42;7.80;;;7.40;;
8102;SDS011;4094;49.948;11.574;2023-04-03T15:42:11;7.90;;;7.50;;
8102;SDS011;4094;49.948;11.574;2023-04-03T15:44:39;7.93;;;7.43;;
8102;SDS011;4094;49.948;11.574;2023-04-03T15:47:09;8.20;;;7.60;;
8102;SDS011;4094;49.948;11.574;2023-04-03T15:49:38;7.90;;;7.40;;
8102;SDS011;4094;49.948;11.574;2023-04-03T15:52:07;7.97;;;7.40;;
8102;SDS011;4094;49.948;11.574;2023-04-03T15:54:37;8.40;;;7.80;;
8102;SDS011;4094;49.948;11.574;2023-04-03T15:57:07;8.00;;;7.40;;
8102;SDS011;4094;49.948;11.574;2023-04-03T15:59:36;7.93;;;7.43;;
8102;SDS011;4094;49.948;11.574;2023-04-03T16:02:05;7.73;;;7.13;;
8102;SDS011;4094;49.948;11.574;2023-04-03T16:04:40;7.93;;;7.43;;
8102;SDS011;4094;49.948;11.574;2023-04-03T16:07:09;8.00;;;7.50;;
8102;SDS011;4094;49.948;11.574;2023-04-03T16:09:40;8.23;;;7.73;;
8102;SDS011;4094;49.948;11.574;2023-04-03T16:12:09;8.17;;;7.67;;
8102;SDS011;4094;49.948;11.574;2023-04-03T16:14:38;9.70;;;8.80;;
8102;SDS011;4094;49.948;11.574;2023-04-03T16:17:07;9.47;;;8.77;;
8102;SDS011;4094;49.948;11.574;2023-04-03T16:19:36;9.23;;;8.43;;
8102;SDS011;4094;49.948;11.574;2023-04-03T16:22:05;9.00;;;8.40;;
8102;SDS011;4094;49.948;11.574;2023-04-03T16:24:35;8.73;;;8.23;;
8102;SDS011;4094;49.948;11.574;2023-04-03T16:27:06;8.47;;;7.97;;